Indianapolis, Indiana
Traffic Map
Current Weather Conditions
Indianapolis, Indiana
Overcast Haze
Overcast

Feels Like: 8°
Wind Chill: Ceiling: 800
Heat Index: Visibility: 6mi
Dew Point: Wind: 7mph
Humidity: 93% Direction: 130° (SE)
Pressure: 29.97in Gusts: 0mph
Raw Report DataKIND 281354Z 13006KT 6SM BR BKN008 OVC011 09/08 A2997 RMK AO2 SLP150 T00940083 $
Traffic Incident Summary
Active as of:
Severity:
Category:
InformationThere was an issue retrieving the traffic information for this location. Please try a different location or try again shortly.
Advertisements
Track Severe Weather on mobile